Time;durP1;ratioP1;P1;durP2;ratioP2;P2;SDS_P1;SDS_P2;PMS_P1;PMS_P2;Temp;Humidity;BMP_temperature;BMP_pressure;BME280_temperature;BME280_humidity;BME280_pressure;Samples;Min_cycle;Max_cycle;Signal;HPM_P1;HPM_P2
2021/07/18 00:00:46;;;;;;;13.93;10.98;;;27.10;63.90;;;;;;1881970;75;21092;-55
2021/07/18 00:03:15;;;;;;;14.28;11.03;;;27.10;64.00;;;;;;1795294;79;21127;-54
2021/07/18 00:05:45;;;;;;;15.72;11.78;;;27.00;63.90;;;;;;1882013;76;21046;-54
2021/07/18 00:08:15;;;;;;;16.02;11.00;;;27.00;64.20;;;;;;1826674;78;21130;-54
2021/07/18 00:10:44;;;;;;;16.42;13.08;;;27.00;64.40;;;;;;1826591;78;21099;-55
2021/07/18 00:13:14;;;;;;;19.90;13.95;;;27.00;64.30;;;;;;1826589;78;21106;-55
2021/07/18 00:15:43;;;;;;;17.32;12.50;;;26.90;64.10;;;;;;1826549;78;21171;-53
2021/07/18 00:18:12;;;;;;;13.05;11.60;;;26.90;64.40;;;;;;1826593;78;21040;-53
2021/07/18 00:20:42;;;;;;;14.15;11.28;;;26.90;64.40;;;;;;1826645;78;21113;-53
2021/07/18 00:23:12;;;;;;;13.78;11.63;;;26.90;64.50;;;;;;1826594;77;21075;-53
2021/07/18 00:25:41;;;;;;;15.25;11.10;;;26.90;64.60;;;;;;1826559;78;21102;-53
2021/07/18 00:28:11;;;;;;;18.10;12.68;;;26.90;64.80;;;;;;1826818;78;21592;-53
2021/07/18 00:30:40;;;;;;;15.10;12.68;;;26.90;64.80;;;;;;1826652;78;21119;-53
2021/07/18 00:33:10;;;;;;;18.73;11.83;;;26.90;64.60;;;;;;1826551;77;21071;-53
2021/07/18 00:35:39;;;;;;;24.18;13.48;;;26.90;64.50;;;;;;1826591;77;21059;-52
2021/07/18 00:38:09;;;;;;;15.20;10.80;;;26.80;64.40;;;;;;1829168;76;21044;-53
2021/07/18 00:40:39;;;;;;;14.83;11.20;;;26.80;64.70;;;;;;1878370;76;21056;-53
2021/07/18 00:43:08;;;;;;;15.40;11.43;;;26.70;64.70;;;;;;1878236;76;21087;-52
2021/07/18 00:45:38;;;;;;;14.28;10.78;;;26.70;64.90;;;;;;1878295;76;21032;-54
2021/07/18 00:48:08;;;;;;;17.77;12.75;;;26.70;65.20;;;;;;1878269;76;21040;-53
2021/07/18 00:50:43;;;;;;;13.83;11.55;;;26.70;65.00;;;;;;1878426;76;21053;-53
2021/07/18 00:53:09;;;;;;;16.23;11.68;;;26.70;64.90;;;;;;1877848;76;21104;-53
2021/07/18 00:55:43;;;;;;;18.32;11.48;;;26.60;64.90;;;;;;1878541;76;21103;-53
2021/07/18 00:58:10;;;;;;;15.95;12.58;;;26.60;64.90;;;;;;1878130;76;21549;-54
2021/07/18 01:00:40;;;;;;;21.12;12.55;;;26.60;65.20;;;;;;1878391;76;21087;-54
2021/07/18 01:03:10;;;;;;;15.43;12.18;;;26.60;65.30;;;;;;1878398;76;21102;-53
2021/07/18 01:05:40;;;;;;;16.62;11.83;;;26.60;65.30;;;;;;1878368;76;21063;-53
2021/07/18 01:08:10;;;;;;;14.07;11.95;;;26.60;65.50;;;;;;1878367;76;21040;-53
2021/07/18 01:10:39;;;;;;;17.80;11.83;;;26.60;65.60;;;;;;1878372;76;21173;-53
2021/07/18 01:13:09;;;;;;;18.87;13.38;;;26.70;65.70;;;;;;1878487;76;21036;-52
2021/07/18 01:15:41;;;;;;;19.90;12.68;;;26.60;65.60;;;;;;1878483;76;21114;-53
2021/07/18 01:18:12;;;;;;;21.30;13.45;;;26.70;65.60;;;;;;1878481;76;21052;-54
2021/07/18 01:20:43;;;;;;;17.40;14.15;;;26.70;65.40;;;;;;1878412;76;21040;-53
2021/07/18 01:23:12;;;;;;;18.48;13.40;;;26.70;65.40;;;;;;1878381;76;21016;-53
2021/07/18 01:25:42;;;;;;;19.30;13.75;;;26.60;65.50;;;;;;1878382;76;21557;-54
2021/07/18 01:28:13;;;;;;;19.15;13.48;;;26.50;65.80;;;;;;1878380;76;21016;-53
2021/07/18 01:30:43;;;;;;;17.50;13.05;;;26.50;66.00;;;;;;1878364;76;21209;-53
2021/07/18 01:33:13;;;;;;;20.70;13.03;;;26.40;66.30;;;;;;1878427;76;21106;-52
2021/07/18 01:35:42;;;;;;;17.75;13.72;;;26.50;66.40;;;;;;1878377;76;21028;-53
2021/07/18 01:38:13;;;;;;;19.85;13.38;;;26.50;66.20;;;;;;1878418;76;21110;-52
2021/07/18 01:40:43;;;;;;;15.98;13.25;;;26.50;66.30;;;;;;1867578;76;21130;-52
2021/07/18 01:43:13;;;;;;;19.32;13.38;;;26.50;66.20;;;;;;1865853;77;21005;-53
2021/07/18 01:45:42;;;;;;;20.05;14.30;;;26.50;66.40;;;;;;1865997;77;21079;-53
2021/07/18 01:48:12;;;;;;;17.52;14.55;;;26.50;66.40;;;;;;1865858;77;21110;-53
2021/07/18 01:50:41;;;;;;;16.23;12.58;;;26.50;66.50;;;;;;1865987;77;21037;-53
2021/07/18 01:53:11;;;;;;;20.00;14.38;;;26.40;66.60;;;;;;1865961;77;21056;-54
2021/07/18 01:55:40;;;;;;;22.95;15.68;;;26.40;66.80;;;;;;1866007;77;21154;-53
2021/07/18 01:58:09;;;;;;;20.40;13.58;;;26.30;66.70;;;;;;1865897;77;21060;-54
2021/07/18 02:00:39;;;;;;;19.30;14.00;;;26.30;67.10;;;;;;1865972;77;21104;-53
2021/07/18 02:03:08;;;;;;;18.45;14.58;;;26.30;67.40;;;;;;1865837;77;21033;-52
2021/07/18 02:05:38;;;;;;;20.10;14.85;;;26.30;67.50;;;;;;1865993;77;21060;-53
2021/07/18 02:08:07;;;;;;;22.27;14.63;;;26.20;67.50;;;;;;1865866;77;21040;-52
2021/07/18 02:10:37;;;;;;;19.90;14.55;;;26.20;67.50;;;;;;1865876;77;21038;-53
2021/07/18 02:13:06;;;;;;;18.42;13.78;;;26.30;67.50;;;;;;1865876;77;21040;-54
2021/07/18 02:15:35;;;;;;;18.48;14.35;;;26.20;67.60;;;;;;1865970;77;21040;-53
2021/07/18 02:18:05;;;;;;;22.20;15.45;;;26.30;67.60;;;;;;1865962;77;21108;-50
2021/07/18 02:20:35;;;;;;;20.37;14.85;;;26.20;67.50;;;;;;1865857;77;21019;-52
2021/07/18 02:23:04;;;;;;;18.87;14.60;;;26.10;67.40;;;;;;1865810;77;21037;-53
2021/07/18 02:25:34;;;;;;;19.55;14.07;;;26.00;67.70;;;;;;1866018;77;21025;-53
2021/07/18 02:28:04;;;;;;;19.05;12.88;;;26.00;68.00;;;;;;1865898;77;21103;-53
2021/07/18 02:30:33;;;;;;;17.05;13.58;;;25.90;68.30;;;;;;1865936;77;21017;-53
2021/07/18 02:33:03;;;;;;;18.37;12.93;;;25.90;68.40;;;;;;1865852;77;21111;-53
2021/07/18 02:35:32;;;;;;;16.30;13.80;;;25.90;68.20;;;;;;1866046;77;21017;-53
2021/07/18 02:38:02;;;;;;;15.83;13.75;;;25.90;68.10;;;;;;1865890;77;21135;-53
2021/07/18 02:40:32;;;;;;;14.65;12.50;;;25.90;67.90;;;;;;1865861;76;21060;-51
2021/07/18 02:43:02;;;;;;;16.27;12.80;;;25.80;68.00;;;;;;1865967;77;21092;-54
2021/07/18 02:45:32;;;;;;;20.62;12.18;;;25.80;68.10;;;;;;1865900;77;21033;-52
2021/07/18 02:48:01;;;;;;;20.27;13.40;;;25.90;68.00;;;;;;1865948;77;21045;-54
2021/07/18 02:50:30;;;;;;;18.17;12.68;;;25.90;67.90;;;;;;1865974;77;21088;-53
2021/07/18 02:53:00;;;;;;;15.58;12.58;;;25.80;67.70;;;;;;1865978;77;21110;-53
2021/07/18 02:55:29;;;;;;;17.60;12.45;;;25.80;67.80;;;;;;1865889;77;21082;-53
2021/07/18 02:57:59;;;;;;;14.40;12.88;;;25.80;68.10;;;;;;1865845;77;21016;-53
2021/07/18 03:00:28;;;;;;;16.02;13.22;;;25.80;68.30;;;;;;1865892;77;21091;-54
2021/07/18 03:02:58;;;;;;;17.45;12.20;;;25.90;68.50;;;;;;1865875;77;21044;-53
2021/07/18 03:05:27;;;;;;;15.65;12.75;;;25.90;68.30;;;;;;1865973;77;21091;-53
2021/07/18 03:07:56;;;;;;;16.40;14.05;;;26.00;68.30;;;;;;1865864;77;21108;-53
2021/07/18 03:10:25;;;;;;;21.25;17.23;;;26.20;68.50;;;;;;1865936;77;21076;-54
2021/07/18 03:12:55;;;;;;;26.55;17.57;;;26.20;68.40;;;;;;1865975;77;21475;-54
2021/07/18 03:15:24;;;;;;;27.25;18.98;;;26.30;68.40;;;;;;1865889;77;21048;-53
2021/07/18 03:17:53;;;;;;;27.27;18.50;;;26.40;68.20;;;;;;1865859;77;21103;-53
2021/07/18 03:20:23;;;;;;;24.63;18.62;;;26.50;68.10;;;;;;1865975;77;21111;-53
2021/07/18 03:22:52;;;;;;;27.60;19.70;;;26.60;68.00;;;;;;1865909;77;21043;-53
2021/07/18 03:25:22;;;;;;;32.73;22.07;;;26.80;67.80;;;;;;1865916;77;21044;-52
2021/07/18 03:27:51;;;;;;;35.50;23.10;;;26.90;67.60;;;;;;1865864;77;21146;-52
2021/07/18 03:30:22;;;;;;;34.78;19.80;;;27.00;67.60;;;;;;1866013;76;21153;-52
2021/07/18 03:32:51;;;;;;;26.30;17.12;;;27.10;67.50;;;;;;1865856;77;21036;-53
2021/07/18 03:35:21;;;;;;;20.50;14.87;;;27.20;67.30;;;;;;1865882;76;21080;-51
2021/07/18 03:37:51;;;;;;;20.52;14.58;;;27.30;67.20;;;;;;1865869;77;21109;-53
2021/07/18 03:40:20;;;;;;;16.52;13.08;;;27.30;66.90;;;;;;1868620;76;21067;-52
2021/07/18 03:42:50;;;;;;;17.23;12.88;;;27.20;66.90;;;;;;1878342;76;21060;-53
2021/07/18 03:45:19;;;;;;;18.73;13.03;;;27.30;67.10;;;;;;1878371;76;21032;-53
2021/07/18 03:47:49;;;;;;;18.40;13.68;;;27.30;67.00;;;;;;1878300;76;21012;-52
2021/07/18 03:50:19;;;;;;;18.30;12.63;;;27.40;67.10;;;;;;1878345;76;21008;-53
2021/07/18 03:52:48;;;;;;;16.07;12.23;;;27.50;66.90;;;;;;1878372;76;21032;-53
2021/07/18 03:55:17;;;;;;;18.42;12.98;;;27.60;67.00;;;;;;1878246;76;21117;-53
2021/07/18 03:57:47;;;;;;;16.85;12.43;;;27.70;66.60;;;;;;1878285;76;21071;-53
2021/07/18 04:00:17;;;;;;;16.62;12.45;;;27.80;66.20;;;;;;1878459;76;21122;-53
2021/07/18 04:02:46;;;;;;;22.65;14.78;;;27.90;66.30;;;;;;1878293;76;21048;-53
2021/07/18 04:05:16;;;;;;;34.10;23.15;;;28.00;66.50;;;;;;1878298;76;21012;-53
2021/07/18 04:07:45;;;;;;;25.40;16.52;;;28.00;66.50;;;;;;1878373;76;21032;-53
2021/07/18 04:10:14;;;;;;;34.75;24.67;;;28.20;66.70;;;;;;1878301;76;21135;-53
2021/07/18 04:12:43;;;;;;;22.15;16.20;;;28.30;66.60;;;;;;1878425;76;21023;-51
2021/07/18 04:15:14;;;;;;;24.15;14.95;;;28.40;66.70;;;;;;1878269;76;21540;-52
2021/07/18 04:17:44;;;;;;;18.37;14.07;;;28.60;67.00;;;;;;1878338;76;21044;-53
2021/07/18 04:20:14;;;;;;;19.85;15.30;;;28.70;67.10;;;;;;1878349;76;21110;-53
2021/07/18 04:22:43;;;;;;;23.95;14.80;;;28.70;67.20;;;;;;1878148;76;21106;-53
2021/07/18 04:25:13;;;;;;;23.15;15.58;;;28.80;67.40;;;;;;1878355;76;21032;-53
2021/07/18 04:27:42;;;;;;;19.95;16.62;;;28.80;67.60;;;;;;1878165;76;21156;-53
2021/07/18 04:30:12;;;;;;;22.05;14.85;;;28.80;67.80;;;;;;1878464;76;21052;-54
2021/07/18 04:32:42;;;;;;;20.37;14.03;;;28.90;67.90;;;;;;1878184;76;21087;-53
2021/07/18 04:35:12;;;;;;;26.07;15.20;;;28.90;68.00;;;;;;1878237;76;21111;-53
2021/07/18 04:37:41;;;;;;;20.48;16.15;;;28.90;68.00;;;;;;1878288;76;21082;-53
2021/07/18 04:40:11;;;;;;;19.73;15.03;;;29.00;68.00;;;;;;1878316;76;21505;-53
2021/07/18 04:42:41;;;;;;;26.35;15.63;;;29.10;68.10;;;;;;1866572;76;21122;-52
2021/07/18 04:45:11;;;;;;;22.32;16.45;;;29.10;68.10;;;;;;1865790;76;21102;-54
2021/07/18 04:47:45;;;;;;;18.42;15.03;;;29.30;68.30;;;;;;1865725;77;21115;-53
2021/07/18 04:50:15;;;;;;;30.10;17.90;;;29.30;68.20;;;;;;1865884;77;21040;-52
2021/07/18 04:52:44;;;;;;;19.05;15.55;;;29.30;68.00;;;;;;1865774;77;21169;-53
2021/07/18 04:55:14;;;;;;;20.72;15.65;;;29.30;68.00;;;;;;1865779;77;21041;-53
2021/07/18 04:57:44;;;;;;;24.10;15.80;;;29.30;68.00;;;;;;1865813;77;21102;-52
2021/07/18 05:00:16;;;;;;;20.12;15.85;;;29.30;68.10;;;;;;1865835;77;21041;-53
2021/07/18 05:02:45;;;;;;;20.85;16.80;;;29.30;68.20;;;;;;1865794;77;21045;-53
2021/07/18 05:05:16;;;;;;;20.77;15.00;;;29.40;68.20;;;;;;1865760;76;21020;-52
2021/07/18 05:07:59;;;;;;;17.00;15.00;;;29.40;67.90;;;;;;1865688;76;21083;-53
2021/07/18 05:10:29;;;;;;;23.35;14.15;;;29.50;67.90;;;;;;1865845;77;21095;-53
2021/07/18 05:12:59;;;;;;;22.65;14.93;;;29.60;67.70;;;;;;1865787;77;21108;-53
2021/07/18 05:15:29;;;;;;;18.07;14.20;;;29.60;67.60;;;;;;1865819;77;21037;-53
2021/07/18 05:18:00;;;;;;;26.02;15.08;;;29.70;67.50;;;;;;1865735;77;21041;-52
2021/07/18 05:20:29;;;;;;;19.90;15.35;;;29.70;67.20;;;;;;1865798;76;21056;-52
2021/07/18 05:22:59;;;;;;;16.57;14.50;;;29.80;67.10;;;;;;1865530;77;21037;-53
2021/07/18 05:25:28;;;;;;;21.77;14.50;;;29.80;66.80;;;;;;1865697;77;21180;-53
2021/07/18 05:27:58;;;;;;;17.50;14.10;;;29.80;66.80;;;;;;1865659;77;21037;-54
2021/07/18 05:30:27;;;;;;;24.50;14.73;;;29.80;66.60;;;;;;1865640;76;21037;-54
2021/07/18 05:32:57;;;;;;;20.52;13.75;;;29.90;66.60;;;;;;1865596;76;21110;-53
2021/07/18 05:35:26;;;;;;;23.18;16.00;;;29.80;66.60;;;;;;1865780;77;21028;-53
2021/07/18 05:37:55;;;;;;;20.65;15.60;;;29.90;66.80;;;;;;1865843;77;21045;-53
2021/07/18 05:40:25;;;;;;;19.17;15.10;;;30.00;66.70;;;;;;1865792;77;21131;-53
2021/07/18 05:42:55;;;;;;;20.00;14.15;;;30.00;66.50;;;;;;1875545;76;21176;-54
2021/07/18 05:45:24;;;;;;;30.55;15.18;;;30.10;65.90;;;;;;1878368;76;21096;-53
2021/07/18 05:47:53;;;;;;;19.15;13.83;;;30.10;65.60;;;;;;1878292;76;21040;-53
2021/07/18 05:50:23;;;;;;;17.90;14.60;;;30.10;65.70;;;;;;1878388;76;21068;-54
2021/07/18 05:52:54;;;;;;;18.12;13.50;;;30.20;65.50;;;;;;1878265;76;21068;-52
2021/07/18 05:55:23;;;;;;;19.23;13.43;;;30.30;65.30;;;;;;1878246;76;21037;-53
2021/07/18 05:57:53;;;;;;;19.32;14.10;;;30.40;64.90;;;;;;1878300;76;21130;-53
2021/07/18 06:00:23;;;;;;;18.80;12.75;;;30.40;64.80;;;;;;1878281;76;21044;-53
2021/07/18 06:02:53;;;;;;;19.45;13.08;;;30.50;63.80;;;;;;1878096;76;21098;-53
2021/07/18 06:05:22;;;;;;;18.37;13.53;;;30.60;63.40;;;;;;1878220;76;21040;-53
2021/07/18 06:07:52;;;;;;;14.87;12.00;;;30.70;63.10;;;;;;1878227;76;21044;-52
2021/07/18 06:10:21;;;;;;;19.55;13.40;;;30.80;63.00;;;;;;1878366;76;21157;-53
2021/07/18 06:12:51;;;;;;;22.10;14.80;;;31.00;63.40;;;;;;1878324;76;21016;-53
2021/07/18 06:15:20;;;;;;;21.07;14.53;;;31.10;63.20;;;;;;1878357;76;21102;-53
2021/07/18 06:17:49;;;;;;;16.52;14.80;;;31.10;63.00;;;;;;1878481;76;21056;-53
2021/07/18 06:20:19;;;;;;;17.65;12.90;;;31.20;63.10;;;;;;1878232;76;21035;-53
2021/07/18 06:22:51;;;;;;;15.63;12.07;;;31.30;62.90;;;;;;1878369;76;21139;-53
2021/07/18 06:25:20;;;;;;;17.05;12.28;;;31.30;61.90;;;;;;1878308;76;21566;-53
2021/07/18 06:27:49;;;;;;;21.57;13.50;;;31.40;60.70;;;;;;1878247;76;21098;-53
2021/07/18 06:30:19;;;;;;;16.73;12.68;;;31.40;60.70;;;;;;1878283;76;21549;-53
2021/07/18 06:32:48;;;;;;;22.62;13.30;;;31.50;60.90;;;;;;1878174;76;21098;-53
2021/07/18 06:35:17;;;;;;;17.27;12.35;;;31.60;60.60;;;;;;1878384;76;21016;-53
2021/07/18 06:37:46;;;;;;;18.30;13.90;;;31.70;60.00;;;;;;1878389;76;21044;-53
2021/07/18 06:40:16;;;;;;;21.85;13.90;;;31.80;59.50;;;;;;1878300;76;21044;-52
2021/07/18 06:42:46;;;;;;;15.65;12.85;;;31.80;58.90;;;;;;1864089;76;21052;-54
2021/07/18 06:45:17;;;;;;;24.02;14.70;;;32.00;58.50;;;;;;1849051;77;21068;-53
2021/07/18 06:47:46;;;;;;;17.40;12.60;;;32.00;57.90;;;;;;1849688;77;21060;-54
2021/07/18 06:50:17;;;;;;;21.07;11.73;;;32.10;57.70;;;;;;1849678;77;21044;-54
2021/07/18 06:52:46;;;;;;;16.30;10.93;;;32.20;56.80;;;;;;1849680;76;21137;-54
2021/07/18 06:55:16;;;;;;;18.17;11.20;;;32.30;56.60;;;;;;1849444;76;21494;-54
2021/07/18 06:57:53;;;;;;;17.20;11.15;;;32.30;56.10;;;;;;1849720;77;21044;-53
2021/07/18 07:00:23;;;;;;;17.82;10.93;;;32.40;55.00;;;;;;1849433;76;21525;-54
2021/07/18 07:02:53;;;;;;;17.90;10.85;;;32.40;53.90;;;;;;1849489;77;21169;-52
2021/07/18 07:05:22;;;;;;;21.37;10.48;;;32.50;54.00;;;;;;1849605;77;21150;-53
2021/07/18 07:07:51;;;;;;;16.35;10.15;;;32.60;53.80;;;;;;1849534;77;21016;-54
2021/07/18 07:10:21;;;;;;;20.10;11.15;;;32.70;53.50;;;;;;1849720;77;21158;-53
2021/07/18 07:12:50;;;;;;;18.02;10.72;;;32.80;53.00;;;;;;1849435;77;21110;-53
2021/07/18 07:15:20;;;;;;;22.27;11.00;;;32.90;52.30;;;;;;1849683;77;21052;-53
2021/07/18 07:17:49;;;;;;;20.32;12.13;;;33.00;52.70;;;;;;1849534;77;21028;-53
2021/07/18 07:20:18;;;;;;;22.75;12.28;;;33.10;52.10;;;;;;1849598;77;21443;-54
2021/07/18 07:22:48;;;;;;;18.45;11.53;;;33.10;51.70;;;;;;1849557;77;21068;-54
2021/07/18 07:25:18;;;;;;;21.55;11.00;;;33.20;51.90;;;;;;1849489;77;21048;-53
2021/07/18 07:27:47;;;;;;;21.15;11.33;;;33.30;52.50;;;;;;1849474;77;21012;-54
2021/07/18 07:30:18;;;;;;;18.20;11.18;;;33.30;51.80;;;;;;1849601;76;21090;-53
2021/07/18 07:32:48;;;;;;;20.55;11.83;;;33.30;51.40;;;;;;1849648;77;21106;-53
2021/07/18 07:35:17;;;;;;;23.02;12.37;;;33.40;51.30;;;;;;1849585;76;21016;-54
2021/07/18 07:37:47;;;;;;;22.48;10.60;;;33.30;51.20;;;;;;1849720;76;21048;-54
2021/07/18 07:40:18;;;;;;;17.00;11.08;;;33.30;51.20;;;;;;1849544;77;21117;-52
2021/07/18 07:42:49;;;;;;;21.30;12.13;;;33.40;51.00;;;;;;1849595;76;21451;-54
2021/07/18 07:45:18;;;;;;;21.95;11.65;;;33.50;51.20;;;;;;1849554;76;21032;-53
2021/07/18 07:47:48;;;;;;;17.35;10.63;;;33.50;51.50;;;;;;1849334;76;21098;-53
2021/07/18 07:50:17;;;;;;;14.95;9.43;;;33.70;51.20;;;;;;1849507;77;21024;-52
2021/07/18 07:52:47;;;;;;;19.25;11.73;;;33.70;50.90;;;;;;1849555;77;21060;-53
2021/07/18 07:55:16;;;;;;;15.40;9.78;;;33.80;50.80;;;;;;1849529;76;21048;-54
2021/07/18 07:57:45;;;;;;;14.25;10.13;;;33.80;50.80;;;;;;1849553;76;21118;-53
2021/07/18 08:00:17;;;;;;;16.32;11.25;;;33.80;50.50;;;;;;1849604;77;21052;-53
2021/07/18 08:02:49;;;;;;;17.00;10.70;;;33.80;50.30;;;;;;1849617;77;21095;-52
2021/07/18 08:05:21;;;;;;;22.05;11.63;;;33.90;50.20;;;;;;1849752;77;21020;-53
2021/07/18 08:07:50;;;;;;;16.40;9.83;;;33.90;50.00;;;;;;1849627;77;21048;-54
2021/07/18 08:10:21;;;;;;;15.65;9.45;;;33.80;49.60;;;;;;1849635;76;21123;-54
2021/07/18 08:12:51;;;;;;;21.17;9.65;;;33.80;49.90;;;;;;1894403;74;21036;-53
2021/07/18 08:15:21;;;;;;;16.80;9.28;;;33.90;50.00;;;;;;1849775;77;21044;-54
2021/07/18 08:17:51;;;;;;;15.13;9.60;;;33.90;49.70;;;;;;1849780;76;21072;-54
2021/07/18 08:20:23;;;;;;;26.35;10.80;;;34.00;49.60;;;;;;1849649;77;21110;-54
2021/07/18 08:22:54;;;;;;;16.87;9.53;;;34.00;49.60;;;;;;1849563;76;21087;-54
2021/07/18 08:25:25;;;;;;;21.20;10.70;;;34.10;49.20;;;;;;1894224;76;21036;-54
2021/07/18 08:27:55;;;;;;;12.13;8.88;;;34.10;49.40;;;;;;1817708;78;21056;-54
2021/07/18 08:30:24;;;;;;;19.73;10.20;;;34.20;49.00;;;;;;1894367;74;21126;-54
2021/07/18 08:32:54;;;;;;;23.62;13.25;;;34.20;48.70;;;;;;1817567;79;21064;-54
2021/07/18 08:35:23;;;;;;;24.02;12.10;;;34.30;48.60;;;;;;1894267;75;21040;-54
2021/07/18 08:37:52;;;;;;;23.47;10.40;;;34.30;48.60;;;;;;1817703;79;21530;-53
2021/07/18 08:40:21;;;;;;;17.82;10.93;;;34.30;47.80;;;;;;1894303;76;21029;-54
2021/07/18 08:42:52;;;;;;;13.18;7.83;;;34.30;47.90;;;;;;1849523;76;21088;-54
2021/07/18 08:45:22;;;;;;;16.97;9.20;;;34.40;47.30;;;;;;1849696;76;21566;-54
2021/07/18 08:47:51;;;;;;;14.47;9.70;;;34.30;47.10;;;;;;1849639;76;21044;-54
2021/07/18 08:50:21;;;;;;;14.50;7.83;;;34.40;47.70;;;;;;1849673;76;21044;-54
2021/07/18 08:52:52;;;;;;;11.65;7.58;;;34.50;47.40;;;;;;1849686;77;21051;-54
2021/07/18 08:55:23;;;;;;;18.30;10.48;;;34.50;46.80;;;;;;1848682;77;21454;-54
2021/07/18 08:57:53;;;;;;;20.15;13.18;;;34.50;46.50;;;;;;1849608;77;21099;-54
2021/07/18 09:00:23;;;;;;;20.65;8.30;;;34.50;46.60;;;;;;1849748;77;21096;-54
2021/07/18 09:02:53;;;;;;;26.65;8.83;;;34.60;46.30;;;;;;1894304;75;21563;-54
2021/07/18 09:05:22;;;;;;;13.55;8.63;;;34.70;46.40;;;;;;1849579;76;21298;-54
2021/07/18 09:07:56;;;;;;;14.73;7.87;;;34.70;45.90;;;;;;1849564;76;21047;-54
2021/07/18 09:10:26;;;;;;;;;;;34.80;46.00;;;;;;1897245;75;21008;-54
2021/07/18 09:13:12;;;;;;;14.90;8.35;;;34.80;46.40;;;;;;1894328;76;20105;-55
2021/07/18 09:15:47;;;;;;;16.90;8.28;;;34.80;46.30;;;;;;1849723;77;21044;-53
2021/07/18 09:18:21;;;;;;;17.60;8.60;;;35.00;45.90;;;;;;1894502;75;21045;-54
2021/07/18 09:20:53;;;;;;;17.07;8.43;;;35.10;45.70;;;;;;1893155;75;21514;-54
2021/07/18 09:23:32;;;;;;;13.70;7.40;;;35.20;46.20;;;;;;1894327;74;21514;-54
2021/07/18 09:26:26;;;;;;;13.55;7.50;;;35.20;45.40;;;;;;1893925;76;21119;-54
2021/07/18 09:28:53;;;;;;;17.80;8.03;;;35.20;45.30;;;;;;1894249;75;21088;-54
2021/07/18 09:31:38;;;;;;;19.23;7.78;;;35.20;44.80;;;;;;1894537;74;21072;-54
2021/07/18 09:34:16;;;;;;;16.05;7.83;;;35.20;45.00;;;;;;1894359;75;21229;-54
2021/07/18 09:36:46;;;;;;;17.32;7.97;;;35.20;44.50;;;;;;1894531;75;21463;-54
2021/07/18 09:39:15;;;;;;;21.42;8.78;;;35.20;44.50;;;;;;1894349;75;21086;-54
2021/07/18 09:41:46;;;;;;;16.17;7.67;;;35.20;44.20;;;;;;1894479;75;21024;-54
2021/07/18 09:44:16;;;;;;;19.65;7.42;;;35.30;44.30;;;;;;1855636;76;21072;-55
2021/07/18 09:46:45;;;;;;;13.20;7.85;;;35.30;44.20;;;;;;1865818;77;21483;-54
2021/07/18 09:49:32;;;;;;;17.57;7.97;;;35.40;44.00;;;;;;1865871;77;21087;-54
2021/07/18 09:52:19;;;;;;;23.92;8.75;;;35.50;44.20;;;;;;1865996;77;21029;-54
2021/07/18 09:54:51;;;;;;;14.90;8.13;;;35.60;44.20;;;;;;1865969;77;21111;-54
2021/07/18 09:57:34;;;;;;;16.70;8.50;;;35.70;44.10;;;;;;1902148;75;21032;-55
2021/07/18 10:00:06;;;;;;;22.87;7.72;;;35.80;43.70;;;;;;1902385;75;21000;-55
2021/07/18 10:02:36;;;;;;;15.32;8.58;;;35.90;42.90;;;;;;1902062;75;21013;-55
2021/07/18 10:05:06;;;;;;;20.92;8.13;;;36.00;42.60;;;;;;1902104;75;21495;-54
2021/07/18 10:07:36;;;;;;;17.32;8.15;;;36.10;42.00;;;;;;1902181;75;21005;-54
2021/07/18 10:10:07;;;;;;;16.00;9.13;;;36.10;42.70;;;;;;1902114;75;21009;-54
2021/07/18 10:12:37;;;;;;;17.10;8.85;;;36.10;43.00;;;;;;1902292;75;21033;-54
2021/07/18 10:15:07;;;;;;;16.57;8.50;;;36.10;43.90;;;;;;1902332;75;21008;-54
2021/07/18 10:17:37;;;;;;;18.73;9.05;;;36.20;43.90;;;;;;1902126;75;21008;-54
2021/07/18 10:20:07;;;;;;;11.85;7.47;;;36.20;43.90;;;;;;1902144;75;21028;-55
2021/07/18 10:22:36;;;;;;;14.80;8.48;;;36.30;44.10;;;;;;1902105;75;21089;-53
2021/07/18 10:25:07;;;;;;;18.48;7.60;;;36.30;43.70;;;;;;1902226;75;21009;-54
2021/07/18 10:27:37;;;;;;;15.40;8.30;;;36.40;43.60;;;;;;1902148;75;21102;-55
2021/07/18 10:30:07;;;;;;;23.07;8.70;;;36.50;43.60;;;;;;1902089;75;21009;-55
2021/07/18 10:32:36;;;;;;;18.60;8.50;;;36.50;43.50;;;;;;1902182;75;21162;-53
2021/07/18 10:35:08;;;;;;;24.40;9.53;;;36.50;43.50;;;;;;1902276;75;21094;-53
2021/07/18 10:37:42;;;;;;;12.60;8.50;;;36.50;43.70;;;;;;1902237;75;21049;-54
2021/07/18 10:40:18;;;;;;;18.13;9.00;;;36.50;43.50;;;;;;1902495;75;21103;-55
2021/07/18 10:42:47;;;;;;;15.05;7.87;;;36.60;43.50;;;;;;1902216;75;21379;-55
2021/07/18 10:45:21;;;;;;;16.40;8.68;;;36.60;43.50;;;;;;1902170;74;21052;-54
2021/07/18 10:48:05;;;;;;;15.75;7.92;;;36.60;43.90;;;;;;1902220;75;21017;-55
2021/07/18 10:50:47;;;;;;;20.08;9.13;;;36.50;44.40;;;;;;1902389;75;21090;-53
2021/07/18 10:53:18;;;;;;;15.13;10.18;;;36.60;44.50;;;;;;1873633;76;21058;-55
2021/07/18 10:55:48;;;;;;;15.63;8.28;;;36.60;44.30;;;;;;1914739;75;21016;-55
2021/07/18 10:58:40;;;;;;;21.75;8.65;;;36.70;44.30;;;;;;1914898;75;21024;-55
2021/07/18 11:01:23;;;;;;;14.70;8.08;;;36.70;44.20;;;;;;1914720;75;21056;-55
2021/07/18 11:03:53;;;;;;;10.88;8.68;;;36.80;44.50;;;;;;1915016;75;21029;-54
2021/07/18 11:06:29;;;;;;;17.82;8.75;;;36.80;44.60;;;;;;1914779;75;21102;-55
2021/07/18 11:09:12;;;;;;;15.80;10.30;;;36.80;44.50;;;;;;1912324;75;21556;-55
2021/07/18 11:11:43;;;;;;;14.10;8.63;;;36.90;44.40;;;;;;1914816;75;21032;-55
2021/07/18 11:14:27;;;;;;;14.38;8.45;;;37.00;44.40;;;;;;1914914;75;21091;-55
2021/07/18 11:17:01;;;;;;;15.88;8.63;;;37.00;44.40;;;;;;1914668;75;21035;-55
2021/07/18 11:19:39;;;;;;;13.88;8.90;;;37.00;45.20;;;;;;1914766;75;21110;-55
2021/07/18 11:22:10;;;;;;;24.32;9.95;;;37.00;45.50;;;;;;1914775;75;21082;-55
2021/07/18 11:24:54;;;;;;;16.48;8.48;;;36.90;45.80;;;;;;1914784;75;21097;-55
2021/07/18 11:27:31;;;;;;;14.05;8.40;;;36.90;46.10;;;;;;1915008;75;21091;-55
2021/07/18 11:30:08;;;;;;;11.43;8.18;;;36.90;46.20;;;;;;1914912;75;21008;-55
2021/07/18 11:32:40;;;;;;;12.68;7.60;;;37.00;45.30;;;;;;1906402;75;21494;-55
2021/07/18 11:35:12;;;;;;;15.43;7.97;;;37.00;45.60;;;;;;1914832;74;21450;-55
2021/07/18 11:37:44;;;;;;;11.88;8.55;;;37.10;43.40;;;;;;1913092;75;21486;-55
2021/07/18 11:40:13;;;;;;;15.48;7.50;;;37.10;42.60;;;;;;1914118;75;21549;-55
2021/07/18 11:42:44;;;;;;;25.08;7.15;;;37.10;42.70;;;;;;1914828;75;21110;-55
2021/07/18 11:45:14;;;;;;;15.03;10.60;;;37.10;41.60;;;;;;1914745;74;21083;-55
2021/07/18 11:47:43;;;;;;;18.17;11.30;;;37.10;40.40;;;;;;1914841;75;21141;-55
2021/07/18 11:50:16;;;;;;;13.62;6.85;;;37.10;41.60;;;;;;1914792;75;21068;-55
2021/07/18 11:52:44;;;;;;;12.58;8.25;;;37.20;41.50;;;;;;1914685;75;21110;-55
2021/07/18 11:55:14;;;;;;;13.25;7.05;;;37.20;42.00;;;;;;1914794;75;21032;-56
2021/07/18 11:57:43;;;;;;;11.03;7.17;;;37.20;42.50;;;;;;1914787;75;21071;-55
2021/07/18 12:00:13;;;;;;;8.55;6.75;;;37.30;42.40;;;;;;1914744;75;21047;-56
2021/07/18 12:02:44;;;;;;;11.30;7.45;;;37.40;42.00;;;;;;1914727;75;21076;-56
2021/07/18 12:05:13;;;;;;;11.08;7.50;;;37.30;41.80;;;;;;1914769;75;21079;-56
2021/07/18 12:07:43;;;;;;;10.50;7.30;;;37.40;41.50;;;;;;1914732;75;21071;-56
2021/07/18 12:10:21;;;;;;;11.60;6.85;;;37.40;41.60;;;;;;1914846;75;21044;-56
2021/07/18 12:12:50;;;;;;;10.93;6.42;;;37.30;41.80;;;;;;1914812;75;21093;-56
2021/07/18 12:15:20;;;;;;;10.88;6.58;;;37.30;41.90;;;;;;1914770;75;21008;-56
2021/07/18 12:17:50;;;;;;;13.43;6.72;;;37.30;41.90;;;;;;1915034;75;21020;-55
2021/07/18 12:20:22;;;;;;;8.25;6.37;;;37.30;42.10;;;;;;1912423;75;21027;-55
2021/07/18 12:22:52;;;;;;;10.98;6.83;;;37.20;42.90;;;;;;1914759;75;21020;-55
2021/07/18 12:25:21;;;;;;;7.42;6.72;;;37.30;42.60;;;;;;1914966;75;21024;-55
2021/07/18 12:27:51;;;;;;;13.80;7.12;;;37.40;42.30;;;;;;1914821;75;21036;-56
2021/07/18 12:30:23;;;;;;;11.83;6.92;;;37.40;42.30;;;;;;1914841;75;21075;-56
2021/07/18 12:32:53;;;;;;;12.28;6.78;;;37.40;42.30;;;;;;1914749;75;21028;-57
2021/07/18 12:35:22;;;;;;;12.90;7.00;;;37.40;42.20;;;;;;1914634;75;21183;-56
2021/07/18 12:37:52;;;;;;;13.50;6.62;;;37.40;42.30;;;;;;1914763;75;21109;-56
2021/07/18 12:40:22;;;;;;;14.18;6.40;;;37.30;42.40;;;;;;1914813;75;21592;-56
2021/07/18 12:42:53;;;;;;;11.53;6.95;;;37.40;42.50;;;;;;1914760;75;21588;-56
2021/07/18 12:45:23;;;;;;;11.48;7.20;;;37.40;42.70;;;;;;1914818;74;21502;-55
2021/07/18 12:47:58;;;;;;;15.93;6.75;;;37.40;42.80;;;;;;1914943;75;21134;-55